Time;durP1;ratioP1;P1;durP2;ratioP2;P2;SDS_P1;SDS_P2;PMS_P1;PMS_P2;Temp;Humidity;BMP_temperature;BMP_pressure;BME280_temperature;BME280_humidity;BME280_pressure;Samples;Min_cycle;Max_cycle;Signal;HPM_P1;HPM_P2
2022/09/15 00:01:17;;;;;;;9.50;6.60;;;;;;;16.72;72.56;99732.91;5069347;28;20036;-31
2022/09/15 00:03:42;;;;;;;10.93;8.52;;;;;;;16.85;72.43;99748.56;5069091;28;20033;-26
2022/09/15 00:06:08;;;;;;;17.33;13.38;;;;;;;16.97;71.49;99750.19;5069501;28;20025;-33
2022/09/15 00:08:34;;;;;;;13.45;11.63;;;;;;;17.04;70.90;99731.88;5068981;28;20186;-27
2022/09/15 00:11:16;;;;;;;126.90;78.22;;;;;;;16.95;71.80;99755.03;5069404;28;20111;-27
2022/09/15 00:13:42;;;;;;;80.28;52.47;;;;;;;16.70;72.92;99758.50;5069106;28;20024;-26
2022/09/15 00:16:08;;;;;;;10.85;6.75;;;;;;;16.52;76.05;99765.19;5050737;28;20032;-27
2022/09/15 00:18:35;;;;;;;7.68;4.72;;;;;;;16.66;73.65;99756.31;5050362;28;20071;-28
2022/09/15 00:21:05;;;;;;;8.55;4.68;;;;;;;16.86;73.13;99763.66;5050776;28;20059;-26
2022/09/15 00:23:31;;;;;;;7.05;5.13;;;;;;;16.50;74.42;99738.53;5068642;28;20089;-26
2022/09/15 00:25:56;;;;;;;7.43;4.40;;;;;;;16.61;74.75;99748.25;5050642;28;20045;-26
2022/09/15 00:28:22;;;;;;;6.28;4.10;;;;;;;16.63;73.90;99729.94;5068411;28;20455;-27
2022/09/15 00:30:50;;;;;;;6.20;4.40;;;;;;;16.60;71.85;99729.66;5068272;28;20029;-27
2022/09/15 00:33:17;;;;;;;7.22;5.60;;;;;;;16.65;72.89;99738.56;5069110;28;20051;-27
2022/09/15 00:35:45;;;;;;;9.35;6.45;;;;;;;16.53;73.14;99747.94;5068303;28;20079;-27
2022/09/15 00:38:12;;;;;;;7.63;6.40;;;;;;;16.61;73.27;99732.09;5050465;28;20052;-26
2022/09/15 00:40:55;;;;;;;10.57;6.22;;;;;;;16.66;73.35;99745.56;5049887;28;20063;-30
2022/09/15 00:43:41;;;;;;;9.70;5.82;;;;;;;16.22;74.92;99750.53;5050150;28;20039;-29
2022/09/15 00:46:07;;;;;;;8.85;5.60;;;;;;;16.01;76.40;99728.94;5068277;28;20590;-26
2022/09/15 00:48:33;;;;;;;7.13;4.95;;;;;;;16.10;75.41;99736.50;5068322;28;20111;-24
2022/09/15 00:51:02;;;;;;;7.13;4.47;;;;;;;15.94;75.59;99716.84;5033611;28;20408;-29
2022/09/15 00:53:29;;;;;;;7.80;4.78;;;;;;;16.20;74.87;99731.16;5066741;28;20027;-25
2022/09/15 00:55:56;;;;;;;9.75;4.45;;;;;;;16.35;72.65;99714.28;5050058;28;20032;-28
2022/09/15 00:58:25;;;;;;;7.90;4.57;;;;;;;16.65;72.33;99726.97;5050045;28;20097;-26
2022/09/15 01:00:57;;;;;;;6.57;4.85;;;;;;;16.33;73.54;99740.66;5049904;28;20536;-26
2022/09/15 01:03:29;;;;;;;7.65;5.15;;;;;;;15.88;75.63;99734.81;5050099;28;20032;-26
2022/09/15 01:05:59;;;;;;;8.48;5.15;;;;;;;15.71;76.05;99734.16;5049784;28;20024;-27
2022/09/15 01:08:28;;;;;;;8.68;4.85;;;;;;;16.03;75.24;99729.50;5049927;28;20113;-30
2022/09/15 01:10:55;;;;;;;7.60;5.10;;;;;;;15.77;74.96;99727.75;5066393;28;20040;-26
2022/09/15 01:13:21;;;;;;;6.57;4.65;;;;;;;15.50;75.24;99714.44;5067931;28;20089;-28
2022/09/15 01:16:29;;;;;;;7.75;5.10;;;;;;;15.64;74.99;99729.03;5067650;28;20115;-26
2022/09/15 01:19:23;;;;;;;8.40;4.70;;;;;;;15.79;74.12;99736.38;5038881;28;20040;-26
2022/09/15 01:22:17;;;;;;;8.05;5.28;;;;;;;15.84;74.09;99733.72;5067752;28;20027;-26
2022/09/15 01:24:59;;;;;;;11.65;5.35;;;;;;;16.06;73.26;99737.06;5067391;28;20129;-28
2022/09/15 01:27:25;;;;;;;8.25;5.65;;;;;;;16.12;73.13;99737.06;5067485;28;20057;-28
2022/09/15 01:29:53;;;;;;;9.30;6.10;;;;;;;16.25;72.97;99740.06;5049251;28;20021;-26
2022/09/15 01:35:26;;;;;;;10.27;5.82;;;;;;;16.32;73.56;99739.81;5067463;28;20109;-27
2022/09/15 01:38:21;;;;;;;9.63;5.50;;;;;;;16.42;73.70;99737.16;5049484;28;20031;-35
2022/09/15 01:40:54;;;;;;;12.50;6.35;;;;;;;16.48;73.49;99716.44;5067193;28;20033;-27
2022/09/15 01:43:22;;;;;;;8.85;6.15;;;;;;;16.62;72.49;99735.59;5067407;28;20510;-26
2022/09/15 01:45:50;;;;;;;7.40;5.97;;;;;;;16.45;73.08;99736.63;5049112;28;20036;-27
2022/09/15 01:48:20;;;;;;;9.47;6.70;;;;;;;16.39;72.61;99726.94;5049316;28;20047;-26
2022/09/15 01:50:50;;;;;;;10.23;6.32;;;;;;;16.47;72.63;99739.88;5048983;28;20039;-27
2022/09/15 01:53:18;;;;;;;11.00;6.47;;;;;;;16.48;72.29;99733.41;5049089;28;20555;-26
2022/09/15 01:56:01;;;;;;;10.60;7.00;;;;;;;16.60;71.56;99743.13;5049040;28;20025;-26
2022/09/15 01:58:27;;;;;;;12.95;7.45;;;;;;;16.41;71.70;99751.69;5067169;28;20024;-26
2022/09/15 02:00:59;;;;;;;21.30;10.52;;;;;;;16.36;72.16;99765.13;5066779;28;20719;-29
2022/09/15 02:03:36;;;;;;;21.60;10.57;;;;;;;16.44;72.31;99753.03;5067220;28;20048;-26
2022/09/15 02:06:09;;;;;;;16.40;10.05;;;;;;;16.47;72.14;99747.94;5065431;28;20558;-26
2022/09/15 02:09:01;;;;;;;19.90;10.73;;;;;;;16.61;71.70;99748.25;5066489;28;20037;-29
2022/09/15 02:11:29;;;;;;;18.38;11.90;;;;;;;16.46;72.21;99751.69;5048719;28;20024;-30
2022/09/15 02:14:08;;;;;;;24.00;14.00;;;;;;;16.52;72.64;99735.56;5067029;28;20519;-27
2022/09/15 02:16:35;;;;;;;21.35;13.75;;;;;;;16.54;73.24;99736.91;5048569;28;20029;-27
2022/09/15 02:19:03;;;;;;;20.67;12.75;;;;;;;16.47;73.54;99734.47;5066848;28;20117;-27
2022/09/15 02:21:40;;;;;;;18.60;12.18;;;;;;;16.33;74.28;99730.69;5066871;28;20029;-27
2022/09/15 02:24:17;;;;;;;22.55;12.40;;;;;;;16.33;74.18;99709.16;5066701;28;20044;-31
2022/09/15 02:26:47;;;;;;;17.03;11.80;;;;;;;16.30;72.97;99706.97;5048361;28;20440;-26
2022/09/15 02:29:18;;;;;;;18.55;12.38;;;;;;;16.44;72.65;99726.94;5048446;28;20283;-29
2022/09/15 02:31:45;;;;;;;17.08;11.40;;;;;;;16.55;74.84;99710.78;5048760;28;20028;-29
2022/09/15 02:34:20;;;;;;;14.93;10.93;;;;;;;16.63;74.24;99719.19;5048510;28;20079;-30
2022/09/15 02:36:48;;;;;;;15.25;10.93;;;;;;;16.48;72.93;99701.09;5066536;28;20036;-27
2022/09/15 02:39:16;;;;;;;;;;;;;;;16.51;75.08;99721.31;5048957;28;20128;-26
2022/09/15 02:41:42;;;;;;;14.68;10.15;;;;;;;16.21;74.68;99722.84;5066579;28;19932;-26
2022/09/15 02:44:08;;;;;;;13.95;10.75;;;;;;;16.11;76.46;99725.50;5066396;28;20035;-28
2022/09/15 02:46:34;;;;;;;15.02;10.25;;;;;;;15.95;76.74;99729.19;5066447;28;20028;-26
2022/09/15 02:49:00;;;;;;;16.83;10.25;;;;;;;15.74;76.50;99733.69;5065000;28;20032;-29
2022/09/15 02:51:25;;;;;;;19.83;11.50;;;;;;;15.21;78.93;99737.06;5066693;28;20032;-26
2022/09/15 02:53:52;;;;;;;15.15;10.23;;;;;;;14.92;79.45;99723.16;5066494;28;20540;-26
2022/09/15 02:56:17;;;;;;;18.83;10.05;;;;;;;14.86;80.42;99735.72;5048324;28;20675;-28
2022/09/15 02:58:43;;;;;;;14.90;9.43;;;;;;;14.82;80.34;99739.97;5066000;28;20085;-29
2022/09/15 03:01:13;;;;;;;17.55;9.98;;;;;;;14.95;79.55;99744.09;5066624;28;20408;-26
2022/09/15 03:03:39;;;;;;;15.55;9.10;;;;;;;14.81;81.21;99738.38;5048319;28;20047;-27
2022/09/15 03:06:17;;;;;;;16.25;9.23;;;;;;;14.93;79.94;99732.00;5066413;28;20041;-27
2022/09/15 03:08:54;;;;;;;14.45;8.38;;;;;;;14.84;80.54;99737.84;5047945;28;20043;-25
2022/09/15 03:11:22;;;;;;;16.10;9.07;;;;;;;14.91;80.92;99723.41;5066722;28;20102;-26
2022/09/15 03:13:52;;;;;;;16.38;9.10;;;;;;;14.80;81.13;99739.41;5048352;28;20648;-26
2022/09/15 03:16:17;;;;;;;16.00;8.63;;;;;;;14.71;80.33;99727.53;5065038;28;20032;-27
2022/09/15 03:18:42;;;;;;;15.63;8.75;;;;;;;14.59;81.51;99743.00;5066142;28;20039;-26
2022/09/15 03:21:12;;;;;;;10.10;6.80;;;;;;;14.64;81.04;99748.41;5066473;28;20060;-28
2022/09/15 03:23:37;;;;;;;10.82;6.85;;;;;;;14.52;81.38;99736.97;5065962;28;20043;-27
2022/09/15 03:26:04;;;;;;;11.93;6.93;;;;;;;14.51;81.68;99754.16;5066281;28;20028;-26
2022/09/15 03:28:30;;;;;;;13.93;7.90;;;;;;;14.83;80.85;99746.97;5047979;28;20044;-28
2022/09/15 03:30:55;;;;;;;10.90;7.13;;;;;;;14.57;81.58;99755.84;5066160;28;20170;-26
2022/09/15 03:33:24;;;;;;;13.35;7.35;;;;;;;15.18;79.30;99752.88;5065157;28;20774;-29
2022/09/15 03:35:51;;;;;;;12.65;7.30;;;;;;;15.44;77.40;99740.44;5068782;28;20057;-26
2022/09/15 03:38:16;;;;;;;9.80;7.20;;;;;;;15.51;76.87;99762.53;5051287;28;20020;-31
2022/09/15 03:40:43;;;;;;;11.15;7.05;;;;;;;15.57;77.04;99769.56;5069304;28;20037;-29
2022/09/15 03:43:09;;;;;;;11.95;6.93;;;;;;;15.63;76.93;99760.47;5051661;28;20093;-29
2022/09/15 03:45:36;;;;;;;13.70;7.78;;;;;;;15.46;77.33;99757.94;5051246;28;20504;-26
2022/09/15 03:48:04;;;;;;;10.98;7.00;;;;;;;15.03;79.42;99756.25;5051502;28;20603;-26
2022/09/15 03:50:30;;;;;;;12.65;6.85;;;;;;;15.22;79.83;99760.19;5068854;28;20033;-29
2022/09/15 03:52:59;;;;;;;16.40;7.35;;;;;;;15.29;78.58;99729.63;5069850;28;20385;-26
2022/09/15 03:55:24;;;;;;;11.80;7.03;;;;;;;15.32;78.84;99753.25;5069618;28;20412;-26
2022/09/15 03:57:50;;;;;;;14.77;7.22;;;;;;;15.37;78.08;99756.00;5069241;28;20029;-25
2022/09/15 04:00:15;;;;;;;14.32;7.97;;;;;;;15.63;76.98;99754.25;5069326;28;20068;-25
2022/09/15 04:02:40;;;;;;;13.00;7.57;;;;;;;15.49;77.40;99751.25;5068994;28;20107;-26
2022/09/15 04:05:06;;;;;;;10.10;6.75;;;;;;;14.85;77.57;99739.47;5069155;28;20089;-30
2022/09/15 04:07:32;;;;;;;13.57;6.97;;;;;;;14.89;79.68;99753.19;5068974;28;20488;-26
2022/09/15 04:09:57;;;;;;;9.57;6.03;;;;;;;14.53;79.22;99747.47;5069023;28;20032;-25
2022/09/15 04:12:23;;;;;;;12.75;6.90;;;;;;;14.59;78.18;99734.94;5050778;28;20480;-26
2022/09/15 04:14:48;;;;;;;9.85;5.97;;;;;;;14.77;78.05;99756.06;5069165;28;20093;-27
2022/09/15 04:17:14;;;;;;;16.60;7.50;;;;;;;14.80;77.81;99750.16;5068860;28;20036;-27
2022/09/15 04:19:40;;;;;;;11.90;6.55;;;;;;;14.33;79.55;99729.25;5068756;28;20105;-29
2022/09/15 04:22:05;;;;;;;9.82;6.10;;;;;;;14.35;79.77;99756.66;5068997;28;20024;-27
2022/09/15 04:24:31;;;;;;;9.27;6.40;;;;;;;14.38;80.22;99750.75;5068586;28;20065;-26
2022/09/15 04:26:56;;;;;;;10.90;6.35;;;;;;;14.26;80.49;99737.50;5068788;28;20017;-26
2022/09/15 04:29:22;;;;;;;10.45;6.50;;;;;;;14.92;79.66;99747.31;5050603;28;20016;-29
2022/09/15 04:31:47;;;;;;;11.35;6.50;;;;;;;14.94;79.49;99758.63;5068722;28;20020;-27
2022/09/15 04:34:13;;;;;;;10.60;6.70;;;;;;;15.11;78.26;99750.41;5068262;28;20056;-27
2022/09/15 04:36:38;;;;;;;11.65;7.00;;;;;;;15.13;78.29;99755.53;5068276;28;20043;-26
2022/09/15 04:39:05;;;;;;;10.52;6.82;;;;;;;15.42;77.08;99759.50;5068800;28;20503;-28
2022/09/15 04:41:32;;;;;;;10.38;6.97;;;;;;;15.62;76.34;99758.84;5068413;28;20112;-27
2022/09/15 04:43:58;;;;;;;12.30;7.63;;;;;;;15.78;75.53;99745.53;5068628;28;20025;-27
2022/09/15 04:46:24;;;;;;;12.00;7.30;;;;;;;16.10;74.76;99764.25;5067991;28;20098;-26
2022/09/15 04:48:49;;;;;;;12.05;7.03;;;;;;;15.87;76.07;99760.09;5068348;28;20047;-26
2022/09/15 04:51:19;;;;;;;11.68;7.30;;;;;;;15.82;77.57;99762.75;5068365;28;20124;-26
2022/09/15 04:53:45;;;;;;;19.40;7.05;;;;;;;15.86;76.84;99753.09;5050427;28;20028;-27
2022/09/15 04:56:14;;;;;;;15.85;7.60;;;;;;;15.83;77.96;99754.44;5050064;28;20116;-28
2022/09/15 04:58:49;;;;;;;14.18;7.22;;;;;;;15.77;78.45;99757.34;5067846;28;20033;-31
2022/09/15 05:01:18;;;;;;;9.68;6.53;;;;;;;15.81;78.48;99771.88;5050022;28;20091;-27
2022/09/15 05:03:45;;;;;;;13.35;7.00;;;;;;;16.10;77.56;99764.25;5049928;28;20044;-26
2022/09/15 05:06:12;;;;;;;11.93;7.22;;;;;;;16.42;75.47;99766.75;5068090;28;20861;-27
2022/09/15 05:08:38;;;;;;;12.20;7.70;;;;;;;16.64;73.60;99771.94;5049835;28;20036;-25
2022/09/15 05:11:06;;;;;;;12.07;6.97;;;;;;;16.61;74.23;99763.56;5068024;28;20039;-26
2022/09/15 05:13:33;;;;;;;10.43;6.50;;;;;;;16.68;73.33;99769.53;5049705;28;20028;-28
2022/09/15 05:16:07;;;;;;;10.55;7.50;;;;;;;16.60;72.85;99752.00;5067871;28;20035;-27
2022/09/15 05:18:33;;;;;;;9.43;6.63;;;;;;;16.75;71.83;99756.59;5049564;28;20028;-27
2022/09/15 05:21:02;;;;;;;10.65;6.93;;;;;;;16.90;72.13;99760.41;5067871;28;20035;-26
2022/09/15 05:23:28;;;;;;;8.80;6.57;;;;;;;17.17;70.73;99771.75;5049350;28;20044;-33
2022/09/15 05:25:58;;;;;;;12.88;7.50;;;;;;;17.21;70.02;99756.66;5049439;28;20504;-29
2022/09/15 05:28:24;;;;;;;9.98;7.20;;;;;;;17.21;70.64;99751.28;5067354;28;20024;-26
2022/09/15 05:30:51;;;;;;;18.52;12.85;;;;;;;17.30;69.08;99761.50;5067594;28;20031;-28
2022/09/15 05:33:18;;;;;;;9.95;6.93;;;;;;;17.10;71.12;99760.44;5049603;28;20033;-27
2022/09/15 05:35:50;;;;;;;14.57;8.38;;;;;;;17.32;70.13;99751.25;5049462;28;20059;-27
2022/09/15 05:38:16;;;;;;;9.98;6.53;;;;;;;17.23;71.58;99767.97;5066055;28;20056;-34
2022/09/15 05:40:42;;;;;;;11.30;6.28;;;;;;;17.40;70.75;99750.72;5049321;28;20086;-27
2022/09/15 05:43:07;;;;;;;11.30;6.72;;;;;;;17.60;71.19;99766.84;5067437;28;20029;-26
2022/09/15 05:45:32;;;;;;;9.30;7.20;;;;;;;17.66;70.96;99746.88;5067351;28;20036;-27
2022/09/15 05:47:58;;;;;;;11.23;6.72;;;;;;;17.91;70.58;99760.63;5067292;28;20567;-27
2022/09/15 05:50:23;;;;;;;11.88;8.10;;;;;;;18.19;69.60;99776.16;5066910;28;20028;-26
2022/09/15 05:52:52;;;;;;;11.20;7.80;;;;;;;18.61;69.37;99769.47;5067260;28;20086;-26
2022/09/15 05:55:17;;;;;;;10.32;7.20;;;;;;;18.64;67.83;99770.81;5067031;28;20075;-30
2022/09/15 05:57:45;;;;;;;9.98;7.93;;;;;;;18.81;68.14;99760.44;5066324;28;20021;-31
2022/09/15 06:00:11;;;;;;;;;;;;;;;18.83;67.46;99769.06;5067905;28;20086;-26
2022/09/15 06:02:36;;;;;;;13.57;8.90;;;;;;;18.73;69.49;99744.78;5066812;28;19917;-27
2022/09/15 06:05:02;;;;;;;14.82;9.52;;;;;;;19.07;67.90;99762.97;5048780;28;20033;-28
2022/09/15 06:07:27;;;;;;;12.27;8.07;;;;;;;19.35;66.79;99763.25;5048841;28;20480;-26
2022/09/15 06:09:53;;;;;;;12.48;7.80;;;;;;;19.47;67.04;99763.69;5066965;28;20055;-29
2022/09/15 06:12:19;;;;;;;10.52;7.05;;;;;;;19.45;67.02;99746.94;5066541;28;20029;-33
2022/09/15 06:14:46;;;;;;;12.18;7.47;;;;;;;19.60;66.85;99746.78;5067158;28;20028;-28
2022/09/15 06:17:11;;;;;;;10.05;7.25;;;;;;;19.88;65.54;99760.59;5066684;28;20040;-29
2022/09/15 06:19:36;;;;;;;12.68;7.50;;;;;;;20.01;65.13;99746.34;5066919;28;20100;-27
2022/09/15 06:22:02;;;;;;;9.80;6.10;;;;;;;20.01;63.37;99742.84;5066915;28;20028;-28
2022/09/15 06:24:28;;;;;;;11.52;6.80;;;;;;;20.04;63.18;99742.25;5048558;28;20420;-26
2022/09/15 06:26:53;;;;;;;10.63;6.70;;;;;;;20.30;61.58;99750.88;5066632;28;20480;-30
2022/09/15 06:29:18;;;;;;;12.48;7.07;;;;;;;20.32;62.71;99739.75;5066603;28;20104;-27
2022/09/15 06:31:44;;;;;;;11.07;6.30;;;;;;;20.44;62.76;99750.97;5067000;28;20029;-31
2022/09/15 06:34:10;;;;;;;12.55;6.72;;;;;;;20.54;62.53;99741.88;5066685;28;20056;-26
2022/09/15 06:36:37;;;;;;;8.48;5.50;;;;;;;20.61;61.96;99755.88;5047948;28;20032;-27
2022/09/15 06:39:02;;;;;;;7.32;5.43;;;;;;;20.56;60.78;99743.19;5046296;28;20033;-28
2022/09/15 06:41:28;;;;;;;6.88;5.20;;;;;;;20.82;60.58;99762.63;5065883;28;20047;-27
2022/09/15 06:43:55;;;;;;;10.18;6.28;;;;;;;20.92;62.05;99768.97;5066274;28;20481;-30
2022/09/15 06:46:23;;;;;;;12.00;7.25;;;;;;;21.15;60.09;99768.06;5065052;28;20106;-27
2022/09/15 06:48:50;;;;;;;11.10;6.30;;;;;;;21.13;59.60;99750.50;5048058;28;20040;-28
2022/09/15 06:51:18;;;;;;;9.10;6.25;;;;;;;21.34;58.39;99764.50;5065167;28;20171;-27
2022/09/15 06:53:44;;;;;;;11.38;6.10;;;;;;;21.24;59.15;99760.84;5066296;28;20507;-29
2022/09/15 06:56:12;;;;;;;12.60;7.45;;;;;;;21.24;59.08;99757.34;5048061;28;20029;-28
2022/09/15 06:58:38;;;;;;;;;;;;;;;21.55;59.04;99752.19;5065367;28;20039;-26
2022/09/15 07:01:10;;;;;;;7.63;5.03;;;;;;;21.55;58.53;99746.78;5048200;28;19916;-30
2022/09/15 07:03:37;;;;;;;8.20;5.55;;;;;;;21.61;58.43;99747.50;5066205;28;20054;-26
2022/09/15 07:06:04;;;;;;;8.55;5.13;;;;;;;21.85;56.76;99741.88;5065028;28;20028;-34
2022/09/15 07:08:29;;;;;;;10.65;5.15;;;;;;;22.01;57.65;99732.31;5048868;28;20044;-29
2022/09/15 07:10:55;;;;;;;8.88;5.38;;;;;;;21.95;55.76;99744.38;5069797;28;20024;-27
2022/09/15 07:13:22;;;;;;;9.38;5.40;;;;;;;22.15;57.02;99736.91;5070009;28;20039;-28
2022/09/15 07:15:50;;;;;;;8.88;5.45;;;;;;;22.40;57.04;99728.25;5069390;28;20500;-30
2022/09/15 07:18:16;;;;;;;9.85;4.70;;;;;;;22.72;54.49;99741.94;5070051;28;20570;-27
2022/09/15 07:20:41;;;;;;;7.00;4.65;;;;;;;22.78;54.35;99746.97;5069822;28;20515;-28
2022/09/15 07:23:07;;;;;;;7.25;3.80;;;;;;;22.61;53.43;99744.88;5069513;28;20028;-30
2022/09/15 07:25:33;;;;;;;7.10;4.22;;;;;;;22.68;55.67;99739.06;5051821;28;20033;-28
2022/09/15 07:27:58;;;;;;;7.65;4.28;;;;;;;22.74;53.95;99735.09;5069703;28;20035;-27
2022/09/15 07:30:24;;;;;;;6.78;4.32;;;;;;;22.88;52.92;99743.19;5068150;28;20070;-30
2022/09/15 07:32:49;;;;;;;5.75;3.55;;;;;;;23.09;51.51;99734.56;5069273;28;20052;-27
2022/09/15 07:35:15;;;;;;;9.98;5.65;;;;;;;23.63;52.68;99751.66;5068987;28;20109;-27
2022/09/15 07:37:40;;;;;;;11.40;4.88;;;;;;;23.70;52.72;99734.84;5069227;28;20024;-29
2022/09/15 07:40:06;;;;;;;6.10;3.50;;;;;;;23.97;52.49;99734.66;5069776;28;20040;-27
2022/09/15 07:42:31;;;;;;;7.35;3.30;;;;;;;24.23;49.15;99728.44;5069150;28;20040;-29
2022/09/15 07:44:57;;;;;;;7.05;3.20;;;;;;;24.19;48.18;99724.75;5069092;28;20028;-29
2022/09/15 07:47:22;;;;;;;8.65;3.35;;;;;;;24.47;48.24;99736.97;5069762;28;20025;-27
2022/09/15 07:49:49;;;;;;;11.77;3.60;;;;;;;24.80;47.50;99739.25;5069338;28;20028;-28
2022/09/15 07:52:14;;;;;;;7.85;3.15;;;;;;;24.79;46.69;99732.19;5069312;28;20028;-34
2022/09/15 07:54:40;;;;;;;7.60;3.00;;;;;;;24.90;45.16;99753.69;5069017;28;20059;-28
2022/09/15 07:57:05;;;;;;;7.90;2.90;;;;;;;24.94;46.95;99750.00;5069478;28;20052;-28
2022/09/15 07:59:31;;;;;;;8.30;3.08;;;;;;;24.96;45.01;99752.41;5069086;28;20066;-29
2022/09/15 08:01:56;;;;;;;5.50;3.03;;;;;;;25.04;44.48;99748.84;5069200;28;20028;-27
2022/09/15 08:04:22;;;;;;;6.43;3.00;;;;;;;24.97;45.16;99756.75;5068895;28;20033;-27
2022/09/15 08:06:47;;;;;;;5.38;3.10;;;;;;;25.41;45.08;99746.56;5068801;28;20396;-28
2022/09/15 08:09:16;;;;;;;5.05;2.85;;;;;;;25.70;44.57;99742.25;5068825;28;20039;-27
2022/09/15 08:11:42;;;;;;;8.05;3.20;;;;;;;25.91;43.91;99745.91;5050868;28;20025;-28
2022/09/15 08:14:07;;;;;;;4.35;2.90;;;;;;;26.08;40.41;99739.53;5050900;28;20093;-28
2022/09/15 08:16:33;;;;;;;5.20;2.80;;;;;;;25.96;42.69;99717.59;5068485;28;20021;-30
2022/09/15 08:18:59;;;;;;;4.38;2.78;;;;;;;26.31;41.05;99739.22;5069077;28;20036;-28
2022/09/15 08:21:26;;;;;;;5.97;3.03;;;;;;;26.46;40.75;99738.63;5049636;28;20017;-26
2022/09/15 08:23:57;;;;;;;7.05;2.90;;;;;;;26.46;42.03;99733.19;5050931;28;20051;-27
2022/09/15 08:26:24;;;;;;;5.13;2.53;;;;;;;26.51;42.73;99738.44;5050414;28;20055;-29
2022/09/15 08:28:49;;;;;;;9.55;2.63;;;;;;;26.42;42.02;99740.44;5050305;28;20035;-31
2022/09/15 08:31:15;;;;;;;5.10;2.60;;;;;;;26.46;40.58;99738.63;5050548;28;20062;-26
2022/09/15 08:33:41;;;;;;;6.88;2.40;;;;;;;26.68;40.18;99737.50;5049894;28;20036;-34
2022/09/15 08:36:12;;;;;;;5.20;2.60;;;;;;;26.85;41.32;99715.47;5068176;28;20032;-27
2022/09/15 08:38:43;;;;;;;7.80;2.60;;;;;;;27.43;41.50;99725.69;5068168;28;20064;-28
2022/09/15 08:41:33;;;;;;;5.93;2.20;;;;;;;27.49;37.95;99729.78;5067088;28;20160;-29
2022/09/15 08:44:04;;;;;;;5.32;2.50;;;;;;;27.67;39.37;99733.13;5049746;28;20029;-29
2022/09/15 08:46:51;;;;;;;4.32;2.65;;;;;;;27.55;37.56;99733.91;5067584;28;20029;-29
2022/09/15 08:49:24;;;;;;;8.10;2.50;;;;;;;27.41;37.84;99727.97;5067926;28;20040;-33
2022/09/15 08:51:51;;;;;;;4.53;2.10;;;;;;;27.80;38.68;99722.94;5049432;28;20353;-32
2022/09/15 08:54:23;;;;;;;5.53;2.30;;;;;;;28.04;38.45;99731.19;5049768;28;20514;-37
2022/09/15 08:56:50;;;;;;;4.47;2.50;;;;;;;28.48;37.65;99726.97;5049990;28;20493;-32
2022/09/15 08:59:18;;;;;;;8.20;2.33;;;;;;;28.56;36.95;99723.31;5067921;28;20024;-30
2022/09/15 09:01:56;;;;;;;4.65;2.20;;;;;;;28.68;36.17;99734.25;5049873;28;20025;-32
2022/09/15 09:05:08;;;;;;;7.78;2.70;;;;;;;29.19;35.50;99734.50;5067796;28;20033;-30
2022/09/15 09:07:55;;;;;;;7.50;3.13;;;;;;;29.03;34.87;99731.72;5068032;28;20025;-29
2022/09/15 09:10:42;;;;;;;8.40;2.77;;;;;;;28.96;34.38;99733.47;5049362;28;20108;-29
2022/09/15 09:13:22;;;;;;;7.45;2.47;;;;;;;29.02;36.18;99727.34;5049694;28;20519;-33
2022/09/15 09:15:50;;;;;;;5.80;2.20;;;;;;;28.83;34.17;99716.22;5049505;28;20064;-29
2022/09/15 09:18:45;;;;;;;3.67;2.38;;;;;;;29.39;35.30;99698.91;5067922;28;20057;-33
2022/09/15 09:21:11;;;;;;;7.72;2.17;;;;;;;29.97;35.95;99710.09;5049883;28;20624;-30
2022/09/15 09:24:04;;;;;;;7.72;2.15;;;;;;;29.85;34.73;99699.22;5067815;28;20040;-34
2022/09/15 09:26:34;;;;;;;7.88;2.05;;;;;;;29.90;32.68;99698.94;5067404;28;20029;-33
2022/09/15 09:29:04;;;;;;;8.13;2.40;;;;;;;29.99;32.50;99676.75;5049228;28;20859;-29
2022/09/15 09:31:29;;;;;;;3.95;1.90;;;;;;;30.00;34.33;99683.84;5048786;28;20492;-34
2022/09/15 09:34:21;;;;;;;4.85;2.10;;;;;;;30.17;35.81;99683.44;5065094;28;20037;-31
2022/09/15 09:36:59;;;;;;;9.63;2.22;;;;;;;29.99;34.94;99672.03;5049546;28;20024;-33
2022/09/15 09:39:27;;;;;;;5.05;2.25;;;;;;;30.14;35.39;99662.16;5065371;28;20519;-36
2022/09/15 09:41:53;;;;;;;5.65;2.03;;;;;;;30.20;33.14;99666.22;5047113;28;20064;-34
2022/09/15 09:44:19;;;;;;;10.38;2.28;;;;;;;30.28;31.49;99667.19;5065387;28;20029;-33
2022/09/15 09:46:46;;;;;;;4.25;2.00;;;;;;;30.30;32.50;99664.88;5047009;28;20523;-31
2022/09/15 09:49:22;;;;;;;4.45;1.80;;;;;;;30.58;33.51;99658.34;5047934;28;20040;-31
2022/09/15 09:52:02;;;;;;;4.03;2.05;;;;;;;30.82;32.22;99651.72;5048880;28;20519;-30
2022/09/15 09:54:30;;;;;;;3.60;1.88;;;;;;;30.83;34.00;99651.38;5066002;28;20033;-34
2022/09/15 09:57:16;;;;;;;5.57;2.00;;;;;;;31.02;32.24;99650.53;5048005;28;20115;-35
2022/09/15 09:59:45;;;;;;;4.55;2.17;;;;;;;31.33;33.24;99636.88;5066780;28;20040;-30
2022/09/15 10:02:10;;;;;;;4.80;2.85;;;;;;;31.55;30.90;99654.56;5066759;28;20029;-35
2022/09/15 10:05:00;;;;;;;5.65;1.80;;;;;;;31.08;31.93;99651.03;5066690;28;20055;-31
2022/09/15 10:07:25;;;;;;;6.28;2.75;;;;;;;31.31;31.55;99644.72;5055431;28;20101;-34
2022/09/15 10:09:57;;;;;;;5.10;2.00;;;;;;;31.56;31.01;99645.13;5066178;28;20040;-34
2022/09/15 10:12:38;;;;;;;4.80;2.10;;;;;;;31.46;31.11;99646.53;5048515;28;20135;-32
2022/09/15 10:15:06;;;;;;;7.22;2.40;;;;;;;31.72;30.76;99645.75;5048317;28;20059;-30
2022/09/15 10:17:35;;;;;;;9.45;2.17;;;;;;;31.90;32.47;99645.22;5048485;28;20024;-35
2022/09/15 10:20:02;;;;;;;6.28;1.92;;;;;;;31.89;31.94;99616.81;5066566;28;20040;-33
2022/09/15 10:22:39;;;;;;;6.35;1.98;;;;;;;32.08;30.29;99637.19;5047854;28;20029;-35
2022/09/15 10:25:20;;;;;;;9.88;2.20;;;;;;;32.39;32.75;99638.75;5065108;28;20044;-32
2022/09/15 10:28:07;;;;;;;15.18;5.60;;;;;;;32.78;31.21;99635.63;5064725;28;20032;-31
2022/09/15 10:30:34;;;;;;;9.43;3.88;;;;;;;32.85;31.04;99634.91;5066084;28;20113;-35
2022/09/15 10:33:25;;;;;;;4.25;2.00;;;;;;;32.93;30.43;99639.31;5048416;28;20052;-29
2022/09/15 10:35:53;;;;;;;15.40;8.52;;;;;;;33.30;30.00;99635.72;5066580;28;20043;-30
2022/09/15 10:38:32;;;;;;;12.57;2.88;;;;;;;33.46;30.67;99616.88;5048368;28;20112;-30
2022/09/15 10:41:20;;;;;;;7.07;2.40;;;;;;;33.42;29.10;99627.09;5048448;28;20121;-29
2022/09/15 10:44:10;;;;;;;5.50;2.00;;;;;;;33.74;29.70;99618.25;5031507;28;20111;-29
2022/09/15 10:47:29;;;;;;;7.38;1.80;;;;;;;33.90;28.46;99613.19;5050791;28;20124;-32
2022/09/15 10:50:00;;;;;;;6.85;2.22;;;;;;;33.97;29.09;99596.63;4988035;28;20054;-31
2022/09/15 10:52:32;;;;;;;4.05;1.80;;;;;;;34.07;26.93;99602.59;4972046;28;20546;-30
2022/09/15 10:55:21;;;;;;;5.47;1.70;;;;;;;34.12;27.27;99593.91;5040575;28;20052;-30
2022/09/15 10:58:14;;;;;;;5.53;1.75;;;;;;;34.30;27.76;99585.69;5070049;28;20118;-30
2022/09/15 11:00:46;;;;;;;4.88;1.83;;;;;;;34.59;25.76;99578.22;5069631;28;20020;-31
2022/09/15 11:03:15;;;;;;;6.20;1.85;;;;;;;34.90;27.17;99578.66;5051930;28;20041;-31
2022/09/15 11:05:58;;;;;;;3.75;1.58;;;;;;;34.61;26.57;99575.84;5070052;28;20037;-33
2022/09/15 11:08:28;;;;;;;8.05;2.10;;;;;;;34.78;26.83;99568.78;5051946;28;20040;-34
2022/09/15 11:11:14;;;;;;;4.63;1.77;;;;;;;34.95;26.10;99565.22;5070068;28;20020;-32
2022/09/15 11:13:49;;;;;;;9.05;2.05;;;;;;;34.90;26.91;99559.28;5069993;28;20035;-32
2022/09/15 11:16:37;;;;;;;9.95;2.17;;;;;;;34.88;26.87;99556.09;5051739;28;20115;-32
2022/09/15 11:19:38;;;;;;;7.20;1.90;;;;;;;35.36;24.80;99558.47;5069996;28;20028;-30
2022/09/15 11:22:14;;;;;;;4.07;1.60;;;;;;;35.57;23.60;99557.59;5024650;28;20045;-31
2022/09/15 11:24:56;;;;;;;7.50;1.80;;;;;;;35.69;24.49;99559.97;5051318;28;20032;-33
2022/09/15 11:27:35;;;;;;;4.25;1.55;;;;;;;35.67;25.05;99561.56;5051842;28;20103;-30
2022/09/15 11:30:14;;;;;;;6.30;1.60;;;;;;;36.07;24.62;99553.88;5051431;28;20036;-30
2022/09/15 11:33:05;;;;;;;5.35;1.60;;;;;;;35.86;24.58;99558.31;5069295;28;20028;-31
2022/09/15 11:35:41;;;;;;;3.50;1.73;;;;;;;35.93;24.74;99552.72;5067616;28;20071;-32
2022/09/15 11:38:29;;;;;;;6.50;1.77;;;;;;;36.07;24.33;99548.31;5051519;28;20035;-32
2022/09/15 11:41:07;;;;;;;5.35;1.70;;;;;;;35.75;23.90;99547.25;5051406;28;20036;-36
2022/09/15 11:44:06;;;;;;;5.72;1.70;;;;;;;36.18;24.11;99535.97;5050832;28;20029;-30
2022/09/15 11:46:44;;;;;;;7.32;1.92;;;;;;;35.72;23.86;99511.25;5068955;28;20025;-33
2022/09/15 11:49:19;;;;;;;7.80;1.70;;;;;;;36.10;24.21;99517.75;5050851;28;20028;-32